Time;durP1;ratioP1;P1;durP2;ratioP2;P2;SDS_P1;SDS_P2;PMS_P1;PMS_P2;Temp;Humidity;BMP_temperature;BMP_pressure;BME280_temperature;BME280_humidity;BME280_pressure;Samples;Min_cycle;Max_cycle;Signal;HPM_P1;HPM_P2
2021/03/02 00:02:06;;;;;;;35.40;18.77;;;;;;;;;;5000712;28;20660;-69
2021/03/02 00:04:32;;;;;;;38.77;19.47;;;;;;;;;;4999086;28;20297;-70
2021/03/02 00:06:57;;;;;;;32.07;18.23;;;;;;;;;;4997316;28;20757;-69
2021/03/02 00:09:23;;;;;;;30.30;18.00;;;;;;;;;;5004224;28;20232;-70
2021/03/02 00:11:49;;;;;;;33.50;18.17;;;;;;;;;;4998240;28;20178;-70
2021/03/02 00:14:14;;;;;;;34.70;18.23;;;;;;;;;;4995830;28;20380;-70
2021/03/02 00:16:43;;;;;;;29.13;17.83;;;;;;;;;;5001483;28;20204;-70
2021/03/02 00:19:12;;;;;;;37.20;18.77;;;;;;;;;;4997930;28;22285;-69
2021/03/02 00:21:40;;;;;;;36.57;19.47;;;;;;;;;;4995301;28;20175;-69
2021/03/02 00:24:09;;;;;;;38.50;18.47;;;;;;;;;;4999360;28;20720;-70
2021/03/02 00:26:36;;;;;;;36.27;18.37;;;;;;;;;;5000483;28;20183;-69
2021/03/02 00:29:03;;;;;;;37.57;20.07;;;;;;;;;;4996968;28;20747;-69
2021/03/02 00:31:30;;;;;;;35.33;19.67;;;;;;;;;;4999820;28;20745;-72
2021/03/02 00:33:56;;;;;;;32.57;17.63;;;;;;;;;;4998799;28;20187;-73
2021/03/02 00:36:21;;;;;;;34.37;19.33;;;;;;;;;;4994314;28;20209;-73
2021/03/02 00:38:46;;;;;;;37.50;19.83;;;;;;;;;;4997532;28;20249;-71
2021/03/02 00:41:11;;;;;;;40.23;20.07;;;;;;;;;;4996299;28;20187;-70
2021/03/02 00:43:36;;;;;;;43.83;22.73;;;;;;;;;;4997636;28;20231;-72
2021/03/02 00:46:01;;;;;;;34.27;18.43;;;;;;;;;;4998704;28;20195;-69
2021/03/02 00:48:26;;;;;;;39.60;20.17;;;;;;;;;;5001244;28;20242;-70
2021/03/02 00:50:52;;;;;;;37.60;19.80;;;;;;;;;;5001916;28;20183;-69
2021/03/02 00:53:17;;;;;;;36.30;20.17;;;;;;;;;;4996667;28;20189;-69
2021/03/02 00:55:42;;;;;;;39.13;20.37;;;;;;;;;;5002842;28;20203;-72
2021/03/02 00:58:07;;;;;;;39.93;19.63;;;;;;;;;;5001005;28;20205;-71
2021/03/02 01:00:33;;;;;;;42.40;21.23;;;;;;;;;;4995858;28;20306;-70
2021/03/02 01:02:58;;;;;;;42.13;19.67;;;;;;;;;;5002728;28;20211;-70
2021/03/02 01:05:23;;;;;;;36.50;18.93;;;;;;;;;;4999165;28;20196;-70
2021/03/02 01:07:48;;;;;;;42.10;19.73;;;;;;;;;;4994867;28;20258;-70
2021/03/02 01:10:14;;;;;;;42.63;22.03;;;;;;;;;;4999095;28;20235;-70
2021/03/02 01:12:39;;;;;;;39.17;20.03;;;;;;;;;;5000593;28;20217;-70
2021/03/02 01:15:05;;;;;;;42.73;21.27;;;;;;;;;;5000049;28;20179;-70
2021/03/02 01:17:30;;;;;;;40.67;21.27;;;;;;;;;;4995704;28;20222;-70
2021/03/02 01:19:56;;;;;;;40.40;20.67;;;;;;;;;;5003824;28;20771;-70
2021/03/02 01:22:21;;;;;;;45.70;21.10;;;;;;;;;;4997517;28;20179;-70
2021/03/02 01:24:46;;;;;;;42.93;21.50;;;;;;;;;;5008512;28;20224;-70
2021/03/02 01:27:12;;;;;;;48.77;22.50;;;;;;;;;;5003650;28;20225;-70
2021/03/02 01:29:37;;;;;;;45.40;22.27;;;;;;;;;;5002627;28;20225;-69
2021/03/02 01:32:02;;;;;;;40.37;20.37;;;;;;;;;;4999497;28;20187;-71
2021/03/02 01:34:27;;;;;;;42.07;22.17;;;;;;;;;;5000668;28;20213;-70
2021/03/02 01:36:52;;;;;;;47.90;22.07;;;;;;;;;;5000228;28;20351;-70
2021/03/02 01:39:18;;;;;;;43.67;21.77;;;;;;;;;;4999532;28;20198;-70
2021/03/02 01:41:50;;;;;;;51.60;22.37;;;;;;;;;;5006353;28;20664;-70
2021/03/02 01:44:15;;;;;;;43.03;21.23;;;;;;;;;;5002321;28;20256;-70
2021/03/02 01:46:40;;;;;;;44.20;22.83;;;;;;;;;;5006090;28;20239;-71
2021/03/02 01:49:06;;;;;;;47.10;22.30;;;;;;;;;;5004083;28;20195;-70
2021/03/02 01:51:31;;;;;;;55.60;24.20;;;;;;;;;;5003993;28;20187;-71
2021/03/02 01:53:56;;;;;;;51.43;22.60;;;;;;;;;;4998990;28;20560;-70
2021/03/02 01:56:21;;;;;;;48.87;21.07;;;;;;;;;;5001144;28;20199;-70
2021/03/02 01:58:47;;;;;;;50.00;23.60;;;;;;;;;;5005644;28;20501;-70
2021/03/02 02:01:12;;;;;;;46.60;22.67;;;;;;;;;;4999880;28;20199;-71
2021/03/02 02:03:37;;;;;;;41.40;21.30;;;;;;;;;;5015263;28;20179;-70
2021/03/02 02:06:08;;;;;;;51.33;24.77;;;;;;;;;;5007639;28;20184;-71
2021/03/02 02:08:53;;;;;;;48.90;22.80;;;;;;;;;;5009928;28;20199;-71
2021/03/02 02:11:24;;;;;;;47.40;21.30;;;;;;;;;;4999672;28;20258;-71
2021/03/02 02:13:52;;;;;;;41.10;20.80;;;;;;;;;;4998456;28;20615;-70
2021/03/02 02:16:20;;;;;;;47.50;21.43;;;;;;;;;;5000409;28;20219;-70
2021/03/02 02:18:47;;;;;;;44.37;22.90;;;;;;;;;;4996276;28;20638;-70
2021/03/02 02:21:21;;;;;;;43.30;20.57;;;;;;;;;;4997514;28;20187;-70
2021/03/02 02:24:04;;;;;;;44.93;21.80;;;;;;;;;;4996943;28;20186;-70
2021/03/02 02:26:32;;;;;;;49.27;22.03;;;;;;;;;;4998495;28;20189;-71
2021/03/02 02:28:58;;;;;;;42.17;21.33;;;;;;;;;;5002075;28;20230;-70
2021/03/02 02:31:25;;;;;;;44.40;22.47;;;;;;;;;;5004363;28;20210;-70
2021/03/02 02:33:50;;;;;;;43.70;21.83;;;;;;;;;;5006215;28;20266;-70
2021/03/02 02:36:17;;;;;;;49.90;23.50;;;;;;;;;;5003021;28;20793;-70
2021/03/02 02:38:43;;;;;;;48.53;22.67;;;;;;;;;;4996830;28;20207;-70
2021/03/02 02:41:09;;;;;;;43.03;20.97;;;;;;;;;;5003689;28;20263;-70
2021/03/02 02:43:34;;;;;;;48.03;21.80;;;;;;;;;;5001070;28;20270;-70
2021/03/02 02:46:00;;;;;;;53.77;23.77;;;;;;;;;;5003052;28;20186;-69
2021/03/02 02:48:25;;;;;;;56.83;25.43;;;;;;;;;;4998889;28;20230;-70
2021/03/02 02:50:51;;;;;;;51.27;23.80;;;;;;;;;;5001752;28;20266;-70
2021/03/02 02:53:17;;;;;;;62.77;25.20;;;;;;;;;;5001397;28;20197;-70
2021/03/02 02:55:44;;;;;;;54.07;24.00;;;;;;;;;;5003724;28;20183;-72
2021/03/02 02:58:10;;;;;;;47.67;24.00;;;;;;;;;;5004528;28;20186;-71
2021/03/02 03:00:36;;;;;;;48.93;22.67;;;;;;;;;;5003345;28;20199;-71
2021/03/02 03:03:04;;;;;;;72.97;26.43;;;;;;;;;;4994762;28;20207;-71
2021/03/02 03:05:30;;;;;;;56.43;24.43;;;;;;;;;;5004528;28;20183;-71
2021/03/02 03:07:57;;;;;;;51.60;24.30;;;;;;;;;;5000259;28;20178;-71
2021/03/02 03:10:24;;;;;;;51.93;24.50;;;;;;;;;;5004051;28;20592;-72
2021/03/02 03:12:51;;;;;;;60.47;24.47;;;;;;;;;;5000024;28;20179;-71
2021/03/02 03:15:17;;;;;;;48.87;23.90;;;;;;;;;;5003623;28;20659;-71
2021/03/02 03:17:46;;;;;;;49.00;23.10;;;;;;;;;;4994895;28;20214;-71
2021/03/02 03:20:12;;;;;;;52.87;24.60;;;;;;;;;;5002933;28;20278;-73
2021/03/02 03:22:38;;;;;;;58.07;24.13;;;;;;;;;;4994206;28;20213;-72
2021/03/02 03:25:04;;;;;;;52.00;24.23;;;;;;;;;;5008605;28;20194;-71
2021/03/02 03:27:30;;;;;;;62.17;24.23;;;;;;;;;;4997884;28;20190;-71
2021/03/02 03:29:56;;;;;;;59.70;25.87;;;;;;;;;;5003911;28;20233;-70
2021/03/02 03:32:21;;;;;;;52.10;23.80;;;;;;;;;;5006980;28;20179;-71
2021/03/02 03:34:47;;;;;;;54.07;23.13;;;;;;;;;;5001055;28;20557;-71
2021/03/02 03:37:12;;;;;;;65.20;25.13;;;;;;;;;;5003257;28;20203;-71
2021/03/02 03:39:38;;;;;;;66.87;26.53;;;;;;;;;;5000013;28;20250;-71
2021/03/02 03:42:03;;;;;;;57.40;25.40;;;;;;;;;;5003177;28;20218;-71
2021/03/02 03:44:29;;;;;;;59.93;26.27;;;;;;;;;;4998913;28;20186;-71
2021/03/02 03:46:54;;;;;;;70.17;27.83;;;;;;;;;;5008467;28;20221;-71
2021/03/02 03:49:19;;;;;;;63.70;26.17;;;;;;;;;;5001794;28;20245;-71
2021/03/02 03:51:45;;;;;;;68.53;26.40;;;;;;;;;;5001139;28;20184;-71
2021/03/02 03:54:11;;;;;;;61.93;26.43;;;;;;;;;;5004554;28;20179;-71
2021/03/02 03:56:36;;;;;;;69.57;28.97;;;;;;;;;;4995852;28;20196;-71
2021/03/02 03:59:05;;;;;;;74.57;29.27;;;;;;;;;;5008621;28;20672;-70
2021/03/02 04:01:31;;;;;;;79.70;29.60;;;;;;;;;;5009645;28;20191;-70
2021/03/02 04:03:56;;;;;;;77.97;29.00;;;;;;;;;;4998234;28;20402;-70
2021/03/02 04:06:22;;;;;;;70.77;27.73;;;;;;;;;;5001194;28;20202;-70
2021/03/02 04:08:48;;;;;;;67.87;26.80;;;;;;;;;;5000931;28;20214;-70
2021/03/02 04:11:13;;;;;;;67.10;25.53;;;;;;;;;;5011471;28;20179;-70
2021/03/02 04:13:38;;;;;;;72.70;27.77;;;;;;;;;;4999814;28;20194;-70
2021/03/02 04:16:04;;;;;;;79.70;28.47;;;;;;;;;;4997690;28;20288;-71
2021/03/02 04:18:29;;;;;;;84.17;31.60;;;;;;;;;;5007583;28;20181;-70
2021/03/02 04:20:55;;;;;;;81.20;31.90;;;;;;;;;;5002710;28;20175;-71
2021/03/02 04:23:20;;;;;;;78.53;29.40;;;;;;;;;;5009471;28;20229;-71
2021/03/02 04:25:45;;;;;;;71.77;30.93;;;;;;;;;;5002260;28;20285;-71
2021/03/02 04:28:10;;;;;;;81.83;28.70;;;;;;;;;;5009975;28;20644;-71
2021/03/02 04:30:36;;;;;;;67.30;29.00;;;;;;;;;;5004716;28;20317;-70
2021/03/02 04:33:02;;;;;;;73.13;29.47;;;;;;;;;;5008203;28;20259;-71
2021/03/02 04:35:27;;;;;;;66.53;27.73;;;;;;;;;;5001089;28;20227;-71
2021/03/02 04:37:52;;;;;;;72.47;28.13;;;;;;;;;;4995187;28;20227;-70
2021/03/02 04:40:18;;;;;;;80.03;29.57;;;;;;;;;;5004296;28;20210;-71
2021/03/02 04:42:44;;;;;;;74.87;29.70;;;;;;;;;;5000796;28;20179;-70
2021/03/02 04:45:10;;;;;;;75.87;29.00;;;;;;;;;;5000263;28;20352;-70
2021/03/02 04:47:36;;;;;;;73.73;27.73;;;;;;;;;;5000617;28;20191;-71
2021/03/02 04:50:02;;;;;;;82.53;31.03;;;;;;;;;;4998399;28;20253;-70
2021/03/02 04:52:28;;;;;;;82.20;31.30;;;;;;;;;;5002215;28;20228;-72
2021/03/02 04:54:54;;;;;;;83.73;28.93;;;;;;;;;;5001785;28;20649;-70
2021/03/02 04:57:19;;;;;;;76.50;30.60;;;;;;;;;;5001824;28;20771;-71
2021/03/02 04:59:45;;;;;;;80.90;29.83;;;;;;;;;;5006612;28;20273;-71
2021/03/02 05:02:10;;;;;;;74.80;29.53;;;;;;;;;;5005678;28;20179;-70
2021/03/02 05:04:35;;;;;;;73.10;28.97;;;;;;;;;;5004258;28;20342;-70
2021/03/02 05:07:00;;;;;;;80.73;30.23;;;;;;;;;;4999023;28;20180;-70
2021/03/02 05:09:25;;;;;;;86.37;30.10;;;;;;;;;;4993656;28;20207;-71
2021/03/02 05:11:52;;;;;;;81.53;30.80;;;;;;;;;;5005249;28;21198;-70
2021/03/02 05:14:17;;;;;;;79.90;27.80;;;;;;;;;;5002427;28;20570;-71
2021/03/02 05:16:43;;;;;;;82.47;31.17;;;;;;;;;;5005828;28;20198;-70
2021/03/02 05:19:08;;;;;;;77.90;31.37;;;;;;;;;;4997480;28;20210;-71
2021/03/02 05:21:33;;;;;;;83.40;30.57;;;;;;;;;;5013307;28;20497;-70
2021/03/02 05:23:58;;;;;;;79.50;32.07;;;;;;;;;;5003235;28;20600;-71
2021/03/02 05:26:24;;;;;;;78.73;29.50;;;;;;;;;;5002341;28;20183;-71
2021/03/02 05:28:49;;;;;;;83.00;29.63;;;;;;;;;;5008557;28;20234;-70
2021/03/02 05:31:14;;;;;;;75.03;29.87;;;;;;;;;;4999983;28;20179;-70
2021/03/02 05:33:40;;;;;;;79.07;28.80;;;;;;;;;;5007221;28;20683;-70
2021/03/02 05:36:05;;;;;;;84.37;29.40;;;;;;;;;;5002993;28;20202;-70
2021/03/02 05:38:30;;;;;;;82.63;29.93;;;;;;;;;;5002817;28;20179;-70
2021/03/02 05:40:55;;;;;;;86.57;30.80;;;;;;;;;;5002321;28;20171;-72
2021/03/02 05:43:21;;;;;;;86.30;30.03;;;;;;;;;;5010190;28;20179;-70
2021/03/02 05:45:46;;;;;;;87.53;30.77;;;;;;;;;;5002797;28;20184;-70
2021/03/02 05:48:12;;;;;;;91.07;31.47;;;;;;;;;;5008813;28;20210;-71
2021/03/02 05:50:37;;;;;;;76.60;30.70;;;;;;;;;;4995181;28;20311;-70
2021/03/02 05:53:03;;;;;;;85.90;29.90;;;;;;;;;;5002148;28;20301;-71
2021/03/02 05:55:29;;;;;;;93.70;33.73;;;;;;;;;;5002623;28;20231;-70
2021/03/02 05:57:55;;;;;;;84.73;31.47;;;;;;;;;;4997063;28;20199;-71
2021/03/02 06:00:20;;;;;;;87.30;31.37;;;;;;;;;;4998110;28;20217;-70
2021/03/02 06:02:45;;;;;;;96.27;33.17;;;;;;;;;;4997376;28;20547;-71
2021/03/02 06:05:13;;;;;;;93.80;32.67;;;;;;;;;;4998822;28;20607;-71
2021/03/02 06:07:38;;;;;;;86.20;31.27;;;;;;;;;;4995748;28;20196;-71
2021/03/02 06:10:04;;;;;;;87.23;31.53;;;;;;;;;;4997099;28;20210;-71
2021/03/02 06:12:29;;;;;;;91.60;32.30;;;;;;;;;;5004334;28;20189;-71
2021/03/02 06:15:04;;;;;;;85.53;32.63;;;;;;;;;;4999007;28;20181;-72
2021/03/02 06:17:29;;;;;;;90.80;33.13;;;;;;;;;;5002633;28;20260;-72
2021/03/02 06:19:54;;;;;;;82.70;32.60;;;;;;;;;;4998231;28;20195;-71
2021/03/02 06:22:31;;;;;;;84.50;32.63;;;;;;;;;;5002174;28;20194;-71
2021/03/02 06:24:56;;;;;;;103.33;35.97;;;;;;;;;;4998530;28;20596;-71
2021/03/02 06:27:21;;;;;;;90.07;33.23;;;;;;;;;;4998972;28;21026;-72
2021/03/02 06:30:10;;;;;;;88.83;32.30;;;;;;;;;;5003260;28;20203;-72
2021/03/02 06:32:36;;;;;;;71.93;31.73;;;;;;;;;;4984402;28;20199;-72
2021/03/02 06:35:01;;;;;;;91.30;34.37;;;;;;;;;;4999885;28;20171;-71
2021/03/02 06:37:37;;;;;;;82.37;30.43;;;;;;;;;;5002031;28;20691;-71
2021/03/02 06:40:03;;;;;;;88.90;32.70;;;;;;;;;;4999552;28;20207;-71
2021/03/02 06:42:35;;;;;;;82.53;30.60;;;;;;;;;;4995228;28;20189;-72
2021/03/02 06:45:05;;;;;;;83.70;32.30;;;;;;;;;;5002703;28;20245;-71
2021/03/02 06:47:34;;;;;;;103.67;38.30;;;;;;;;;;5006211;28;20199;-71
2021/03/02 06:50:00;;;;;;;138.33;56.90;;;;;;;;;;5000182;28;20195;-71
2021/03/02 06:52:27;;;;;;;159.50;70.90;;;;;;;;;;5002760;28;20228;-71
2021/03/02 06:54:52;;;;;;;163.97;72.03;;;;;;;;;;4994638;28;20270;-71
2021/03/02 06:57:22;;;;;;;159.90;67.87;;;;;;;;;;5004277;28;20681;-71
2021/03/02 07:00:02;;;;;;;139.17;60.40;;;;;;;;;;5001804;28;20222;-71
2021/03/02 07:02:31;;;;;;;116.77;48.10;;;;;;;;;;5001492;28;20170;-72
2021/03/02 07:05:13;;;;;;;111.17;46.70;;;;;;;;;;5001968;28;20616;-71
2021/03/02 07:07:45;;;;;;;107.77;46.00;;;;;;;;;;4998196;28;20657;-72
2021/03/02 07:10:11;;;;;;;96.73;42.27;;;;;;;;;;5005060;28;20210;-71
2021/03/02 07:12:38;;;;;;;94.83;39.17;;;;;;;;;;4999767;28;20188;-72
2021/03/02 07:15:05;;;;;;;107.80;41.20;;;;;;;;;;5005342;28;20262;-71
2021/03/02 07:17:31;;;;;;;102.77;41.50;;;;;;;;;;4997534;28;20268;-71
2021/03/02 07:19:57;;;;;;;106.63;39.43;;;;;;;;;;5004782;28;20203;-72
2021/03/02 07:22:23;;;;;;;96.93;37.90;;;;;;;;;;5000405;28;20176;-71
2021/03/02 07:24:48;;;;;;;98.10;37.03;;;;;;;;;;4995639;28;20203;-71
2021/03/02 07:27:14;;;;;;;87.50;36.77;;;;;;;;;;5002667;28;20211;-71
2021/03/02 07:29:39;;;;;;;88.47;35.27;;;;;;;;;;5003432;28;20276;-72
2021/03/02 07:32:07;;;;;;;78.97;33.70;;;;;;;;;;5001306;28;20262;-71
2021/03/02 07:34:32;;;;;;;77.00;33.90;;;;;;;;;;5003839;28;20241;-71
2021/03/02 07:36:57;;;;;;;85.57;32.43;;;;;;;;;;5001951;28;20202;-71
2021/03/02 07:39:27;;;;;;;71.77;30.23;;;;;;;;;;5003393;28;20711;-71
2021/03/02 07:41:52;;;;;;;82.00;34.13;;;;;;;;;;5019792;28;20198;-72
2021/03/02 07:44:18;;;;;;;70.40;32.63;;;;;;;;;;5005256;28;20174;-70
2021/03/02 07:46:45;;;;;;;60.43;29.27;;;;;;;;;;4998199;28;20178;-71
2021/03/02 07:49:23;;;;;;;54.43;28.60;;;;;;;;;;4999703;28;20265;-71
2021/03/02 07:52:00;;;;;;;51.57;26.00;;;;;;;;;;4999499;28;20660;-71
2021/03/02 07:54:25;;;;;;;49.73;24.73;;;;;;;;;;4999804;28;20190;-71
2021/03/02 07:57:10;;;;;;;44.53;24.40;;;;;;;;;;4998767;28;20191;-71
2021/03/02 07:59:35;;;;;;;46.87;24.17;;;;;;;;;;5000449;28;20705;-72
2021/03/02 08:02:18;;;;;;;39.23;23.33;;;;;;;;;;4995660;28;20180;-72
2021/03/02 08:04:47;;;;;;;44.00;23.90;;;;;;;;;;4998672;28;20184;-71
2021/03/02 08:07:16;;;;;;;37.80;20.90;;;;;;;;;;5002844;28;20649;-71
2021/03/02 08:09:42;;;;;;;35.40;21.77;;;;;;;;;;4998814;28;20720;-70
2021/03/02 08:12:25;;;;;;;32.83;19.20;;;;;;;;;;5001275;28;20179;-71
2021/03/02 08:14:51;;;;;;;35.10;19.10;;;;;;;;;;5000688;28;20287;-71
2021/03/02 08:17:20;;;;;;;29.90;19.83;;;;;;;;;;4995646;28;20254;-70
2021/03/02 08:19:48;;;;;;;33.33;18.77;;;;;;;;;;5000327;28;20199;-71
2021/03/02 08:22:16;;;;;;;29.73;18.87;;;;;;;;;;5005254;28;20648;-72
2021/03/02 08:24:48;;;;;;;29.47;18.63;;;;;;;;;;5004186;28;20179;-71
2021/03/02 08:27:14;;;;;;;27.03;18.27;;;;;;;;;;5002525;28;20246;-71
2021/03/02 08:29:51;;;;;;;29.03;18.83;;;;;;;;;;5004167;28;21077;-70
2021/03/02 08:32:17;;;;;;;27.57;17.57;;;;;;;;;;5003535;28;20225;-71
2021/03/02 08:34:43;;;;;;;31.43;19.43;;;;;;;;;;5001194;28;20182;-70
2021/03/02 08:37:08;;;;;;;26.77;16.67;;;;;;;;;;5000140;28;20211;-71
2021/03/02 08:39:33;;;;;;;25.63;18.17;;;;;;;;;;5003267;28;20201;-71
2021/03/02 08:41:58;;;;;;;28.93;16.87;;;;;;;;;;4998457;28;20179;-71
2021/03/02 08:44:24;;;;;;;25.90;17.23;;;;;;;;;;5003200;28;20183;-70
2021/03/02 08:46:57;;;;;;;26.87;16.87;;;;;;;;;;4999176;28;20179;-71
2021/03/02 08:49:23;;;;;;;26.57;16.53;;;;;;;;;;4997966;28;20243;-71
2021/03/02 08:51:48;;;;;;;24.03;16.13;;;;;;;;;;5000366;28;20179;-72
2021/03/02 08:54:14;;;;;;;21.73;15.13;;;;;;;;;;4999005;28;20233;-71
2021/03/02 08:56:39;;;;;;;23.57;16.13;;;;;;;;;;4999473;28;20211;-71
2021/03/02 08:59:08;;;;;;;23.37;15.43;;;;;;;;;;4999789;28;20808;-71
2021/03/02 09:01:35;;;;;;;25.03;16.13;;;;;;;;;;5000109;28;20178;-71
2021/03/02 09:04:06;;;;;;;24.43;15.67;;;;;;;;;;5002692;28;20261;-71
2021/03/02 09:06:31;;;;;;;22.00;15.57;;;;;;;;;;5002748;28;20183;-70
2021/03/02 09:08:57;;;;;;;26.17;14.37;;;;;;;;;;4998056;28;20792;-71
2021/03/02 09:11:48;;;;;;;20.77;14.43;;;;;;;;;;5000009;28;20191;-71
2021/03/02 09:14:13;;;;;;;20.60;13.30;;;;;;;;;;4997125;28;20282;-70
2021/03/02 09:16:38;;;;;;;21.13;14.13;;;;;;;;;;4998228;28;20298;-72
2021/03/02 09:19:09;;;;;;;20.50;13.90;;;;;;;;;;4995132;28;20191;-71
2021/03/02 09:21:36;;;;;;;18.77;13.40;;;;;;;;;;5002333;28;20574;-71
2021/03/02 09:24:02;;;;;;;20.20;13.57;;;;;;;;;;4997563;28;20183;-71
2021/03/02 09:26:28;;;;;;;19.00;12.53;;;;;;;;;;4993387;28;20179;-72
2021/03/02 09:28:55;;;;;;;18.67;13.73;;;;;;;;;;4992544;28;20219;-71
2021/03/02 09:31:20;;;;;;;21.07;13.23;;;;;;;;;;4998597;28;20183;-71
2021/03/02 09:33:47;;;;;;;20.47;12.40;;;;;;;;;;4997222;28;20190;-72
2021/03/02 09:36:12;;;;;;;16.67;13.33;;;;;;;;;;5005167;28;20711;-73
2021/03/02 09:38:37;;;;;;;18.93;13.17;;;;;;;;;;5004028;28;20195;-72
2021/03/02 09:41:03;;;;;;;17.53;12.47;;;;;;;;;;5006761;28;20171;-72
2021/03/02 09:43:37;;;;;;;19.83;13.63;;;;;;;;;;5006025;28;20715;-72
2021/03/02 09:46:03;;;;;;;19.73;12.83;;;;;;;;;;4998644;28;20209;-73
2021/03/02 09:48:41;;;;;;;17.87;13.23;;;;;;;;;;4999291;28;20209;-72
2021/03/02 09:51:26;;;;;;;16.77;11.93;;;;;;;;;;4998810;28;20282;-70
2021/03/02 09:53:51;;;;;;;15.53;11.57;;;;;;;;;;5004219;28;20174;-71
2021/03/02 09:56:17;;;;;;;18.37;12.37;;;;;;;;;;4999233;28;20198;-70
2021/03/02 09:58:46;;;;;;;17.23;11.63;;;;;;;;;;5003516;28;20231;-71
2021/03/02 10:01:11;;;;;;;17.73;12.43;;;;;;;;;;5002570;28;20656;-71
2021/03/02 10:03:36;;;;;;;13.63;10.80;;;;;;;;;;5001220;28;20213;-73
2021/03/02 10:06:05;;;;;;;27.47;13.37;;;;;;;;;;5007646;28;20175;-72
2021/03/02 10:08:32;;;;;;;17.13;12.57;;;;;;;;;;5002863;28;20274;-72
2021/03/02 10:11:02;;;;;;;16.80;11.07;;;;;;;;;;4998056;28;20230;-70
2021/03/02 10:13:28;;;;;;;14.75;10.75;;;;;;;;;;4994524;28;20269;-70
2021/03/02 10:16:09;;;;;;;15.55;11.38;;;;;;;;;;5000924;28;20175;-71
2021/03/02 10:18:34;;;;;;;20.65;11.90;;;;;;;;;;4996023;28;20203;-71
2021/03/02 10:21:04;;;;;;;15.77;11.35;;;;;;;;;;4999431;28;20183;-70
2021/03/02 10:23:30;;;;;;;20.65;12.75;;;;;;;;;;5004667;28;20194;-73
2021/03/02 10:25:56;;;;;;;18.10;11.43;;;;;;;;;;4999212;28;20184;-71
2021/03/02 10:28:31;;;;;;;14.88;11.50;;;;;;;;;;5005276;28;20203;-70
2021/03/02 10:30:56;;;;;;;14.95;11.90;;;;;;;;;;4993547;28;20190;-71
2021/03/02 10:33:22;;;;;;;15.63;11.38;;;;;;;;;;5000903;28;20175;-71
2021/03/02 10:35:47;;;;;;;16.25;11.25;;;;;;;;;;5004951;28;20187;-71
2021/03/02 10:38:12;;;;;;;17.70;12.07;;;;;;;;;;5004238;28;20656;-70
2021/03/02 10:40:37;;;;;;;15.63;11.90;;;;;;;;;;4995168;28;20437;-72
2021/03/02 10:43:02;;;;;;;13.43;10.75;;;;;;;;;;4993432;28;20183;-70
2021/03/02 10:45:27;;;;;;;12.57;10.00;;;;;;;;;;4997418;28;20475;-70
2021/03/02 10:47:53;;;;;;;13.45;10.63;;;;;;;;;;4998415;28;20186;-71
2021/03/02 10:50:18;;;;;;;15.18;11.07;;;;;;;;;;4997323;28;20612;-71
2021/03/02 10:52:43;;;;;;;13.98;9.48;;;;;;;;;;4997548;28;20272;-70
2021/03/02 10:55:08;;;;;;;15.65;10.57;;;;;;;;;;5006069;28;20182;-71
2021/03/02 10:57:34;;;;;;;13.82;10.48;;;;;;;;;;4994789;28;20704;-73
2021/03/02 10:59:59;;;;;;;14.63;10.63;;;;;;;;;;5002535;28;20209;-70
2021/03/02 11:02:24;;;;;;;13.40;9.85;;;;;;;;;;5001261;28;20197;-72
2021/03/02 11:04:49;;;;;;;13.13;11.10;;;;;;;;;;5000480;28;20203;-70
2021/03/02 11:07:14;;;;;;;13.20;10.35;;;;;;;;;;5007026;28;20503;-71
2021/03/02 11:09:40;;;;;;;13.80;10.07;;;;;;;;;;5006141;28;20448;-71
2021/03/02 11:12:05;;;;;;;13.48;10.48;;;;;;;;;;5003303;28;20198;-71
2021/03/02 11:14:30;;;;;;;15.10;10.85;;;;;;;;;;5008052;28;20557;-71
2021/03/02 11:16:55;;;;;;;12.65;10.18;;;;;;;;;;5002198;28;20196;-71
2021/03/02 11:19:21;;;;;;;14.90;10.85;;;;;;;;;;5007892;28;20683;-71
2021/03/02 11:21:46;;;;;;;13.10;10.02;;;;;;;;;;4996887;28;20202;-71
2021/03/02 11:24:11;;;;;;;11.43;9.77;;;;;;;;;;4995341;28;20229;-71
2021/03/02 11:26:36;;;;;;;12.63;9.43;;;;;;;;;;4995963;28;20633;-71
2021/03/02 11:29:02;;;;;;;15.05;9.85;;;;;;;;;;4997981;28;20203;-70
2021/03/02 11:31:27;;;;;;;14.33;10.07;;;;;;;;;;5002612;28;20444;-70
2021/03/02 11:33:52;;;;;;;12.80;10.57;;;;;;;;;;4998428;28;20428;-71
2021/03/02 11:36:19;;;;;;;12.13;10.20;;;;;;;;;;4995113;28;20452;-71
2021/03/02 11:38:44;;;;;;;12.63;10.50;;;;;;;;;;5001476;28;21005;-70
2021/03/02 11:41:09;;;;;;;13.85;10.75;;;;;;;;;;5007112;28;20310;-71
2021/03/02 11:43:34;;;;;;;13.07;9.73;;;;;;;;;;5004298;28;20182;-70
2021/03/02 11:45:59;;;;;;;14.48;10.60;;;;;;;;;;4991831;28;20187;-73
2021/03/02 11:48:25;;;;;;;10.82;9.18;;;;;;;;;;5001222;28;20187;-72
2021/03/02 11:50:50;;;;;;;13.18;9.25;;;;;;;;;;5002351;28;20179;-74
2021/03/02 11:53:15;;;;;;;14.75;10.98;;;;;;;;;;4998767;28;20265;-72
2021/03/02 11:55:40;;;;;;;14.53;9.60;;;;;;;;;;4997893;28;20180;-70
2021/03/02 11:58:05;;;;;;;13.73;10.30;;;;;;;;;;5004711;28;20468;-70
2021/03/02 12:00:31;;;;;;;14.63;11.10;;;;;;;;;;4997668;28;20211;-73
2021/03/02 12:02:56;;;;;;;13.38;9.90;;;;;;;;;;5000783;28;20429;-70
2021/03/02 12:05:21;;;;;;;15.18;11.65;;;;;;;;;;5002238;28;20261;-71
2021/03/02 12:07:47;;;;;;;11.30;9.43;;;;;;;;;;5005949;28;20565;-70
2021/03/02 12:10:13;;;;;;;11.50;9.55;;;;;;;;;;5002797;28;20219;-71
2021/03/02 12:12:39;;;;;;;12.70;9.88;;;;;;;;;;4997951;28;20344;-71
2021/03/02 12:15:05;;;;;;;12.75;9.32;;;;;;;;;;4999572;28;20266;-70
2021/03/02 12:17:31;;;;;;;11.35;9.25;;;;;;;;;;4998749;28;20211;-70
2021/03/02 12:19:56;;;;;;;12.32;9.27;;;;;;;;;;4996640;28;20572;-70
2021/03/02 12:22:21;;;;;;;11.10;9.60;;;;;;;;;;5000601;28;20322;-70
2021/03/02 12:24:46;;;;;;;15.32;9.88;;;;;;;;;;5003233;28;20176;-71
2021/03/02 12:27:11;;;;;;;13.35;9.10;;;;;;;;;;5004147;28;20191;-71
2021/03/02 12:29:36;;;;;;;12.93;10.23;;;;;;;;;;5005274;28;20211;-71
2021/03/02 12:32:02;;;;;;;11.87;9.53;;;;;;;;;;4999039;28;20428;-70
2021/03/02 12:34:27;;;;;;;11.85;9.95;;;;;;;;;;4999700;28;20434;-70
2021/03/02 12:36:54;;;;;;;12.80;9.77;;;;;;;;;;5007562;28;20719;-71
2021/03/02 12:39:19;;;;;;;11.77;9.52;;;;;;;;;;5005142;28;20981;-71
2021/03/02 12:41:44;;;;;;;12.15;10.20;;;;;;;;;;5004350;28;20205;-70
2021/03/02 12:44:09;;;;;;;13.20;10.23;;;;;;;;;;4999312;28;20194;-71
2021/03/02 12:46:35;;;;;;;13.13;10.00;;;;;;;;;;4996091;28;20230;-70
2021/03/02 12:49:00;;;;;;;12.40;9.80;;;;;;;;;;4995414;28;20433;-71
2021/03/02 12:51:25;;;;;;;13.60;10.75;;;;;;;;;;4997137;28;20429;-71
2021/03/02 12:53:50;;;;;;;13.27;10.85;;;;;;;;;;4995753;28;20187;-71
2021/03/02 12:56:16;;;;;;;11.65;10.05;;;;;;;;;;5003887;28;20195;-71
2021/03/02 12:58:41;;;;;;;12.52;10.63;;;;;;;;;;4998912;28;20750;-70
2021/03/02 13:01:08;;;;;;;15.20;11.25;;;;;;;;;;5001658;28;20179;-72
2021/03/02 13:03:36;;;;;;;12.95;10.40;;;;;;;;;;5005110;28;20179;-72
2021/03/02 13:06:02;;;;;;;13.70;10.27;;;;;;;;;;4993171;28;20198;-72
2021/03/02 13:08:27;;;;;;;13.50;9.55;;;;;;;;;;4999454;28;20175;-72
2021/03/02 13:10:52;;;;;;;14.45;11.15;;;;;;;;;;5009098;28;20566;-72
2021/03/02 13:13:18;;;;;;;13.63;10.35;;;;;;;;;;4997284;28;20275;-71
2021/03/02 13:15:43;;;;;;;13.23;10.77;;;;;;;;;;4997157;28;20175;-71
2021/03/02 13:18:08;;;;;;;12.47;10.53;;;;;;;;;;4999217;28;20210;-71
2021/03/02 13:20:34;;;;;;;12.52;9.95;;;;;;;;;;4998846;28;20453;-72
2021/03/02 13:22:59;;;;;;;13.13;10.30;;;;;;;;;;4995680;28;20191;-72
2021/03/02 13:25:24;;;;;;;13.77;10.43;;;;;;;;;;5009211;28;20190;-72
2021/03/02 13:27:52;;;;;;;13.30;10.60;;;;;;;;;;5000749;28;20792;-71
2021/03/02 13:30:18;;;;;;;16.23;10.85;;;;;;;;;;4998146;28;20327;-72
2021/03/02 13:32:46;;;;;;;13.30;10.00;;;;;;;;;;5002277;28;20261;-74
2021/03/02 13:35:12;;;;;;;13.32;10.68;;;;;;;;;;5010110;28;20652;-73
2021/03/02 13:37:37;;;;;;;13.07;10.43;;;;;;;;;;4998983;28;20238;-73
2021/03/02 13:40:04;;;;;;;11.93;10.63;;;;;;;;;;5003749;28;20199;-73
2021/03/02 13:42:30;;;;;;;12.55;10.30;;;;;;;;;;4995799;28;20219;-73
2021/03/02 13:44:55;;;;;;;13.05;11.07;;;;;;;;;;5001949;28;20776;-74
2021/03/02 13:47:21;;;;;;;12.43;9.95;;;;;;;;;;5001977;28;20236;-74
2021/03/02 13:49:46;;;;;;;14.70;10.45;;;;;;;;;;5008130;28;20285;-74
2021/03/02 13:52:11;;;;;;;12.57;11.07;;;;;;;;;;4998566;28;20187;-71
2021/03/02 13:54:37;;;;;;;16.77;12.15;;;;;;;;;;5001405;28;20270;-74
2021/03/02 13:57:02;;;;;;;14.45;10.55;;;;;;;;;;5004698;28;20207;-71
2021/03/02 13:59:27;;;;;;;14.75;10.63;;;;;;;;;;4994892;28;20695;-71
2021/03/02 14:01:53;;;;;;;14.32;11.43;;;;;;;;;;5001277;28;20178;-71
2021/03/02 14:04:19;;;;;;;11.65;10.45;;;;;;;;;;5005027;28;21845;-71
2021/03/02 14:06:44;;;;;;;12.98;10.57;;;;;;;;;;5007589;28;20745;-71
2021/03/02 14:09:10;;;;;;;12.57;10.80;;;;;;;;;;4996138;28;20220;-71
2021/03/02 14:11:35;;;;;;;14.60;10.70;;;;;;;;;;4994121;28;20180;-71
2021/03/02 14:14:04;;;;;;;12.93;10.80;;;;;;;;;;4999082;28;20183;-71
2021/03/02 14:16:30;;;;;;;16.13;10.93;;;;;;;;;;4999703;28;20763;-71